Time;durP1;ratioP1;P1;durP2;ratioP2;P2;SDS_P1;SDS_P2;PMS_P1;PMS_P2;Temp;Humidity;BMP_temperature;BMP_pressure;BME280_temperature;BME280_humidity;BME280_pressure;Samples;Min_cycle;Max_cycle;Signal;HPM_P1;HPM_P2
2023/07/14 00:01:25;;;;;;;;;;;23.70;62.50;;;;;;8329294;28;20362;-76
2023/07/14 00:05:28;;;;;;;;;;;23.70;62.50;;;;;;8329016;28;20390;-76
2023/07/14 00:09:30;;;;;;;;;;;23.70;62.60;;;;;;8311277;28;19909;-76
2023/07/14 00:13:31;;;;;;;;;;;23.70;62.70;;;;;;8328885;28;19905;-76
2023/07/14 00:17:31;;;;;;;;;;;23.70;62.70;;;;;;8328643;28;19901;-76
2023/07/14 00:21:32;;;;;;;;;;;23.70;62.70;;;;;;8311485;28;19942;-76
2023/07/14 00:25:32;;;;;;;;;;;23.70;62.70;;;;;;8327939;28;19955;-76
2023/07/14 00:29:33;;;;;;;;;;;23.70;62.60;;;;;;8327080;28;19909;-76
2023/07/14 00:33:33;;;;;;;;;;;23.70;62.60;;;;;;8328250;28;20004;-76
2023/07/14 00:37:34;;;;;;;;;;;23.70;62.60;;;;;;8327993;28;20014;-77
2023/07/14 00:41:34;;;;;;;;;;;23.70;62.60;;;;;;8293914;28;20355;-76
2023/07/14 00:45:36;;;;;;;;;;;23.70;62.60;;;;;;8326636;28;20414;-76
2023/07/14 00:49:38;;;;;;;;;;;23.70;62.60;;;;;;8327638;28;19913;-76
2023/07/14 00:53:41;;;;;;;;;;;23.70;62.60;;;;;;8309864;28;19912;-76
2023/07/14 00:57:41;;;;;;;;;;;23.60;62.60;;;;;;8327023;28;19905;-76
2023/07/14 01:02:01;;;;;;;;;;;23.70;62.60;;;;;;8309754;28;20428;-76
2023/07/14 01:06:02;;;;;;;;;;;23.70;62.70;;;;;;8327583;28;19905;-76
2023/07/14 01:10:03;;;;;;;;;;;23.70;62.60;;;;;;8327992;28;20012;-76
2023/07/14 01:14:06;;;;;;;;;;;23.70;62.60;;;;;;8309387;28;19917;-75
2023/07/14 01:18:08;;;;;;;;;;;23.60;62.60;;;;;;8327323;28;19905;-76
2023/07/14 01:22:24;;;;;;;;;;;23.70;62.60;;;;;;8325884;28;19905;-75
2023/07/14 01:26:28;;;;;;;;;;;23.60;62.70;;;;;;8325436;28;19932;-76
2023/07/14 01:30:29;;;;;;;;;;;23.60;62.70;;;;;;8309126;28;20366;-76
2023/07/14 01:34:30;;;;;;;;;;;23.60;62.70;;;;;;8326947;28;19913;-76
2023/07/14 01:38:31;;;;;;;;;;;23.60;62.70;;;;;;8326838;28;20008;-76
2023/07/14 01:42:32;;;;;;;;;;;23.60;62.70;;;;;;8325343;28;20322;-76
2023/07/14 01:46:33;;;;;;;;;;;23.60;62.60;;;;;;8308997;28;20137;-75
2023/07/14 01:50:35;;;;;;;;;;;23.60;62.70;;;;;;8308836;28;19960;-76
2023/07/14 01:54:39;;;;;;;;;;;23.60;62.60;;;;;;8326065;28;20304;-76
2023/07/14 01:58:57;;;;;;;;;;;23.70;62.70;;;;;;8326268;28;20225;-76
2023/07/14 02:02:59;;;;;;;;;;;23.60;62.60;;;;;;8326497;28;20279;-76
2023/07/14 02:07:01;;;;;;;;;;;23.60;62.60;;;;;;8326745;28;19912;-75
2023/07/14 02:11:02;;;;;;;;;;;23.60;62.60;;;;;;8326398;28;20256;-75
2023/07/14 02:15:05;;;;;;;;;;;23.60;62.70;;;;;;8326257;28;19956;-75
2023/07/14 02:19:10;;;;;;;;;;;23.60;62.60;;;;;;8328650;28;19905;-75
2023/07/14 02:23:12;;;;;;;;;;;23.60;62.70;;;;;;8314425;28;20350;-75
2023/07/14 02:27:13;;;;;;;;;;;23.60;62.60;;;;;;8331434;28;19909;-75
2023/07/14 02:31:36;;;;;;;;;;;23.60;62.60;;;;;;8331667;28;19916;-75
2023/07/14 02:35:46;;;;;;;;;;;23.60;62.70;;;;;;8292077;28;20008;-75
2023/07/14 02:39:48;;;;;;;;;;;23.60;62.70;;;;;;8331551;28;20326;-75
2023/07/14 02:43:51;;;;;;;;;;;23.60;62.80;;;;;;8331783;28;19952;-75
2023/07/14 02:47:54;;;;;;;;;;;23.60;62.70;;;;;;8331363;28;20354;-76
2023/07/14 02:51:54;;;;;;;;;;;23.60;63.10;;;;;;8331237;28;20010;-75
2023/07/14 02:55:55;;;;;;;;;;;23.60;62.70;;;;;;8330774;28;19955;-75
2023/07/14 02:59:56;;;;;;;;;;;23.60;62.70;;;;;;8330932;28;20329;-75
2023/07/14 03:03:56;;;;;;;;;;;23.60;62.70;;;;;;8297237;28;19909;-75
2023/07/14 03:07:57;;;;;;;;;;;23.60;62.70;;;;;;8330823;28;20006;-75
2023/07/14 03:11:57;;;;;;;;;;;23.60;62.70;;;;;;8313074;28;19936;-75
2023/07/14 03:15:58;;;;;;;;;;;23.60;62.60;;;;;;8330640;28;20366;-75
2023/07/14 03:20:00;;;;;;;;;;;23.60;62.70;;;;;;8313321;28;19982;-75
2023/07/14 03:24:00;;;;;;;;;;;23.60;62.70;;;;;;8330298;28;19948;-75
2023/07/14 03:28:01;;;;;;;;;;;23.60;62.60;;;;;;8282933;28;20426;-76
2023/07/14 03:32:02;;;;;;;;;;;23.60;62.70;;;;;;8297231;28;20414;-75
2023/07/14 03:36:03;;;;;;;;;;;23.60;62.70;;;;;;8297309;28;19916;-75
2023/07/14 03:40:05;;;;;;;;;;;23.60;62.70;;;;;;8297947;28;19932;-75
2023/07/14 03:44:05;;;;;;;;;;;23.60;62.70;;;;;;8297265;28;19916;-75
2023/07/14 03:48:06;;;;;;;;;;;23.60;62.70;;;;;;8279454;28;19909;-75
2023/07/14 03:52:07;;;;;;;;;;;23.50;62.70;;;;;;8279314;28;19913;-75
2023/07/14 03:56:07;;;;;;;;;;;23.60;62.80;;;;;;8310467;28;19928;-75
2023/07/14 04:00:13;;;;;;;;;;;23.50;62.80;;;;;;8330725;28;19909;-75
2023/07/14 04:04:13;;;;;;;;;;;23.50;62.80;;;;;;8330668;28;19916;-75
2023/07/14 04:08:14;;;;;;;;;;;23.50;62.80;;;;;;8312573;28;19988;-76
2023/07/14 04:12:15;;;;;;;;;;;23.50;62.70;;;;;;8330228;28;19913;-75
2023/07/14 04:16:15;;;;;;;;;;;23.50;62.80;;;;;;8330256;28;20001;-75
2023/07/14 04:20:16;;;;;;;;;;;23.50;62.70;;;;;;8330139;28;19909;-75
2023/07/14 04:24:16;;;;;;;;;;;23.60;62.80;;;;;;8330369;28;19905;-75
2023/07/14 04:28:17;;;;;;;;;;;23.50;62.80;;;;;;8279636;28;19910;-76
2023/07/14 04:32:17;;;;;;;;;;;23.50;62.70;;;;;;8297753;28;19920;-75
2023/07/14 04:36:18;;;;;;;;;;;23.60;62.70;;;;;;8280078;28;20012;-75
2023/07/14 04:40:18;;;;;;;;;;;23.60;62.80;;;;;;8282015;28;19910;-75
2023/07/14 04:44:19;;;;;;;;;;;23.50;62.80;;;;;;8301275;28;20375;-75
2023/07/14 04:48:22;;;;;;;;;;;23.50;62.80;;;;;;8284988;28;19909;-75
2023/07/14 04:52:22;;;;;;;;;;;23.50;62.70;;;;;;8299328;28;19913;-75
2023/07/14 04:56:23;;;;;;;;;;;23.50;62.70;;;;;;8312212;28;19916;-75
2023/07/14 05:00:24;;;;;;;;;;;23.60;62.80;;;;;;8327736;28;19905;-76
2023/07/14 05:04:26;;;;;;;;;;;23.50;62.70;;;;;;8293613;28;20389;-75
2023/07/14 05:08:27;;;;;;;;;;;23.50;62.80;;;;;;8310256;28;19913;-75
2023/07/14 05:12:27;;;;;;;;;;;23.50;62.80;;;;;;8309511;28;19912;-75
2023/07/14 05:16:28;;;;;;;;;;;23.50;62.80;;;;;;8327562;28;20433;-75
2023/07/14 05:20:29;;;;;;;;;;;23.50;62.90;;;;;;8327336;28;19909;-75
2023/07/14 05:24:29;;;;;;;;;;;23.50;62.80;;;;;;8327126;28;19959;-75
2023/07/14 05:28:30;;;;;;;;;;;23.50;62.80;;;;;;8327645;28;19913;-75
2023/07/14 05:32:30;;;;;;;;;;;23.50;62.80;;;;;;8327713;28;20371;-75
2023/07/14 05:36:31;;;;;;;;;;;23.50;62.80;;;;;;8327764;28;20343;-75
2023/07/14 05:40:31;;;;;;;;;;;23.50;62.80;;;;;;8327466;28;20071;-75
2023/07/14 05:44:32;;;;;;;;;;;23.50;62.80;;;;;;8327740;28;19920;-75
2023/07/14 05:48:33;;;;;;;;;;;23.50;62.80;;;;;;8326951;28;19916;-75
2023/07/14 05:52:34;;;;;;;;;;;23.50;62.80;;;;;;8327550;28;20441;-75
2023/07/14 05:56:34;;;;;;;;;;;23.50;62.80;;;;;;8332836;28;19959;-75
2023/07/14 06:00:41;;;;;;;;;;;23.50;62.80;;;;;;8332806;28;20413;-76
2023/07/14 06:04:42;;;;;;;;;;;23.50;62.80;;;;;;8332962;28;19909;-75
2023/07/14 06:08:42;;;;;;;;;;;23.50;62.80;;;;;;8332623;28;20221;-75
2023/07/14 06:12:43;;;;;;;;;;;23.50;62.80;;;;;;8332974;28;19920;-75
2023/07/14 06:16:43;;;;;;;;;;;23.50;62.80;;;;;;8332438;28;19924;-76
2023/07/14 06:20:44;;;;;;;;;;;23.50;62.80;;;;;;8332402;28;20414;-75
2023/07/14 06:24:45;;;;;;;;;;;23.50;62.80;;;;;;8314707;28;20386;-75
2023/07/14 06:28:45;;;;;;;;;;;23.50;62.90;;;;;;8314559;28;20360;-75
2023/07/14 06:32:46;;;;;;;;;;;23.50;62.90;;;;;;8332110;28;19936;-75
2023/07/14 06:36:47;;;;;;;;;;;23.50;62.90;;;;;;8331832;28;19905;-75
2023/07/14 06:40:48;;;;;;;;;;;23.50;62.80;;;;;;8330852;28;20606;-75
2023/07/14 06:44:49;;;;;;;;;;;23.50;62.80;;;;;;8330426;28;19959;-75
2023/07/14 06:48:49;;;;;;;;;;;23.50;62.80;;;;;;8297497;28;20011;-75
2023/07/14 06:52:50;;;;;;;;;;;23.50;62.80;;;;;;8313732;28;19913;-75
2023/07/14 06:56:52;;;;;;;;;;;23.50;62.80;;;;;;8331250;28;19959;-75
2023/07/14 07:00:52;;;;;;;;;;;23.50;62.80;;;;;;8329930;28;19909;-75
2023/07/14 07:04:53;;;;;;;;;;;23.50;62.80;;;;;;8330308;28;19909;-75
2023/07/14 07:08:53;;;;;;;;;;;23.50;62.80;;;;;;8297199;28;20488;-75
2023/07/14 07:12:54;;;;;;;;;;;23.50;62.80;;;;;;8313253;28;20232;-75
2023/07/14 07:16:54;;;;;;;;;;;23.50;62.80;;;;;;8331368;28;20011;-75
2023/07/14 07:20:55;;;;;;;;;;;23.50;62.80;;;;;;8330727;28;19909;-75
2023/07/14 07:24:56;;;;;;;;;;;23.50;62.80;;;;;;8296386;28;19912;-75
2023/07/14 07:28:56;;;;;;;;;;;23.50;62.80;;;;;;8330382;28;19909;-75
2023/07/14 07:32:57;;;;;;;;;;;23.50;62.90;;;;;;8330367;28;19974;-75
2023/07/14 07:36:58;;;;;;;;;;;23.50;62.80;;;;;;8330122;28;19928;-75
2023/07/14 07:40:59;;;;;;;;;;;23.50;62.80;;;;;;8330085;28;20068;-75
2023/07/14 07:45:00;;;;;;;;;;;23.50;62.80;;;;;;8329867;28;19913;-75
2023/07/14 07:49:01;;;;;;;;;;;23.50;62.90;;;;;;8312016;28;20434;-75
2023/07/14 07:53:01;;;;;;;;;;;23.50;62.80;;;;;;8329663;28;20378;-75
2023/07/14 07:57:02;;;;;;;;;;;23.50;62.80;;;;;;8311530;28;19955;-76
2023/07/14 08:01:03;;;;;;;;;;;23.50;62.80;;;;;;8329731;28;20321;-75
2023/07/14 08:05:04;;;;;;;;;;;23.50;62.80;;;;;;8329318;28;19937;-75
2023/07/14 08:09:06;;;;;;;;;;;23.50;62.80;;;;;;8311577;28;19909;-75
2023/07/14 08:13:06;;;;;;;;;;;23.50;62.80;;;;;;8328994;28;19924;-75
2023/07/14 08:17:07;;;;;;;;;;;23.50;62.80;;;;;;8327931;28;19929;-75
2023/07/14 08:21:07;;;;;;;;;;;23.50;62.80;;;;;;8294724;28;20017;-75
2023/07/14 08:25:09;;;;;;;;;;;23.50;62.80;;;;;;8311202;28;20285;-75
2023/07/14 08:29:09;;;;;;;;;;;23.50;62.80;;;;;;8311217;28;19909;-75
2023/07/14 08:33:10;;;;;;;;;;;23.50;62.80;;;;;;8328257;28;19924;-75
2023/07/14 08:37:11;;;;;;;;;;;23.50;62.80;;;;;;8328403;28;19909;-75
2023/07/14 08:41:29;;;;;;;;;;;23.50;62.80;;;;;;8328047;28;20028;-75
2023/07/14 08:45:38;;;;;;;;;;;23.50;62.80;;;;;;8328552;28;20310;-75
2023/07/14 08:49:39;;;;;;;;;;;23.50;62.80;;;;;;8293838;28;19909;-75
2023/07/14 08:53:40;;;;;;;;;;;23.50;62.80;;;;;;8309957;28;19905;-75
2023/07/14 08:57:46;;;;;;;;;;;23.50;62.80;;;;;;8310146;28;20068;-75
2023/07/14 09:01:53;;;;;;;;;;;23.50;62.80;;;;;;8338505;28;20297;-75
2023/07/14 09:05:57;;;;;;;;;;;23.50;62.80;;;;;;8327720;28;19905;-75
2023/07/14 09:09:57;;;;;;;;;;;23.50;62.80;;;;;;8309526;28;20318;-76
2023/07/14 09:14:08;;;;;;;;;;;23.50;62.80;;;;;;8309489;28;19940;-75
2023/07/14 09:18:14;;;;;;;;;;;23.50;62.80;;;;;;8309995;28;20441;-75
2023/07/14 09:22:21;;;;;;;;;;;23.50;62.80;;;;;;8309519;28;20255;-75
2023/07/14 09:26:28;;;;;;;;;;;23.50;62.80;;;;;;8309617;28;19905;-75
2023/07/14 09:30:29;;;;;;;;;;;23.50;62.70;;;;;;8334253;28;19909;-75
2023/07/14 09:34:38;;;;;;;;;;;23.50;62.70;;;;;;8316324;28;19917;-75
2023/07/14 09:38:46;;;;;;;;;;;23.50;62.70;;;;;;8333824;28;19936;-75
2023/07/14 09:42:54;;;;;;;;;;;23.50;62.70;;;;;;8334213;28;19912;-76
2023/07/14 09:46:55;;;;;;;;;;;23.50;62.70;;;;;;8315659;28;19913;-75
2023/07/14 09:50:59;;;;;;;;;;;23.40;62.60;;;;;;8315389;28;20378;-75
2023/07/14 09:55:00;;;;;;;;;;;23.50;63.10;;;;;;8333138;28;20342;-75
2023/07/14 09:59:02;;;;;;;;;;;23.50;62.70;;;;;;8315374;28;19937;-75
2023/07/14 10:03:06;;;;;;;;;;;23.50;62.60;;;;;;8333483;28;20002;-75
2023/07/14 10:07:22;;;;;;;;;;;23.50;62.70;;;;;;8315042;28;19905;-75
2023/07/14 10:11:24;;;;;;;;;;;23.50;62.80;;;;;;8314861;28;20282;-75
2023/07/14 10:15:31;;;;;;;;;;;23.50;62.80;;;;;;8333512;28;19975;-75
2023/07/14 10:19:33;;;;;;;;;;;23.50;62.70;;;;;;8314625;28;20259;-75
2023/07/14 10:23:35;;;;;;;;;;;23.50;62.70;;;;;;8332355;28;20003;-74
2023/07/14 10:27:38;;;;;;;;;;;23.50;62.70;;;;;;8332789;28;19931;-75
2023/07/14 10:31:45;;;;;;;;;;;23.50;62.60;;;;;;8332084;28;19909;-75
2023/07/14 10:35:48;;;;;;;;;;;23.50;62.70;;;;;;8332194;28;20331;-75
2023/07/14 10:39:51;;;;;;;;;;;23.50;62.70;;;;;;8330828;28;19935;-75
2023/07/14 10:43:52;;;;;;;;;;;23.50;62.60;;;;;;8331764;28;19905;-75
2023/07/14 10:48:01;;;;;;;;;;;23.50;62.60;;;;;;8331719;28;19931;-75
2023/07/14 10:52:05;;;;;;;;;;;23.50;62.60;;;;;;8313553;28;19916;-75
2023/07/14 10:56:12;;;;;;;;;;;23.50;62.60;;;;;;8313852;28;19952;-75
2023/07/14 11:00:19;;;;;;;;;;;23.50;62.60;;;;;;8331268;28;19905;-75
2023/07/14 11:04:34;;;;;;;;;;;23.50;62.60;;;;;;8331246;28;19904;-75
2023/07/14 11:08:35;;;;;;;;;;;23.50;62.60;;;;;;8330944;28;19943;-76
2023/07/14 11:12:36;;;;;;;;;;;23.50;62.50;;;;;;8329648;28;19913;-75
2023/07/14 11:16:39;;;;;;;;;;;23.50;62.60;;;;;;8330389;28;19917;-75
2023/07/14 11:21:03;;;;;;;;;;;23.50;62.60;;;;;;8330495;28;19905;-75
2023/07/14 11:25:20;;;;;;;;;;;23.50;62.60;;;;;;8302208;28;20362;-75
2023/07/14 11:29:22;;;;;;;;;;;23.50;62.60;;;;;;8330882;28;19909;-75
2023/07/14 11:33:43;;;;;;;;;;;23.50;62.60;;;;;;8330666;28;19908;-76
2023/07/14 11:38:12;;;;;;;;;;;23.50;62.60;;;;;;8330256;28;19912;-75
2023/07/14 11:42:20;;;;;;;;;;;23.50;62.60;;;;;;8290279;28;19984;-75
2023/07/14 11:46:22;;;;;;;;;;;23.50;62.50;;;;;;8330061;28;19915;-75
2023/07/14 11:50:30;;;;;;;;;;;23.50;62.50;;;;;;8330332;28;20003;-75
2023/07/14 11:54:41;;;;;;;;;;;23.50;62.50;;;;;;8313095;28;19912;-75
2023/07/14 11:58:43;;;;;;;;;;;23.50;62.40;;;;;;8331022;28;19928;-75
2023/07/14 12:02:48;;;;;;;;;;;23.50;62.40;;;;;;8331061;28;19963;-75
2023/07/14 12:06:50;;;;;;;;;;;23.50;62.30;;;;;;8329582;28;19916;-75
2023/07/14 12:10:51;;;;;;;;;;;23.50;62.40;;;;;;8331007;28;20063;-75
2023/07/14 12:14:52;;;;;;;;;;;23.50;62.30;;;;;;8330262;28;19924;-75
2023/07/14 12:19:20;;;;;;;;;;;23.50;62.30;;;;;;8312802;28;19905;-75
2023/07/14 12:23:38;;;;;;;;;;;23.50;62.30;;;;;;8330114;28;19909;-76
2023/07/14 12:27:41;;;;;;;;;;;23.50;62.30;;;;;;8329701;28;19905;-75
2023/07/14 12:31:47;;;;;;;;;;;23.50;62.30;;;;;;8331054;28;19909;-76
2023/07/14 12:35:49;;;;;;;;;;;23.50;62.30;;;;;;8330660;28;19905;-76
2023/07/14 12:39:53;;;;;;;;;;;23.50;62.30;;;;;;8333626;28;19916;-75
2023/07/14 12:43:55;;;;;;;;;;;23.50;62.30;;;;;;8333679;28;19905;-76
2023/07/14 12:48:00;;;;;;;;;;;23.60;62.40;;;;;;8332977;28;19905;-75
2023/07/14 12:52:11;;;;;;;;;;;23.60;62.40;;;;;;8328112;28;19967;-75
2023/07/14 12:56:13;;;;;;;;;;;23.60;62.40;;;;;;8310182;28;19908;-75
2023/07/14 13:00:19;;;;;;;;;;;23.60;62.30;;;;;;8327922;28;19913;-75
2023/07/14 13:04:21;;;;;;;;;;;23.60;62.20;;;;;;8325955;28;19988;-76
2023/07/14 13:08:23;;;;;;;;;;;23.60;62.20;;;;;;8327809;28;19916;-75
2023/07/14 13:12:24;;;;;;;;;;;23.60;62.20;;;;;;8327594;28;19909;-75
2023/07/14 13:16:33;;;;;;;;;;;23.60;62.10;;;;;;8327432;28;19924;-75
2023/07/14 13:20:38;;;;;;;;;;;23.60;62.10;;;;;;8309776;28;19909;-75
2023/07/14 13:24:39;;;;;;;;;;;23.60;62.20;;;;;;8310079;28;20308;-76
2023/07/14 13:29:00;;;;;;;;;;;23.60;62.10;;;;;;8309683;28;20028;-74
2023/07/14 13:33:02;;;;;;;;;;;23.60;62.10;;;;;;8327177;28;20453;-75
2023/07/14 13:37:04;;;;;;;;;;;23.60;62.10;;;;;;8310494;28;19909;-75
2023/07/14 13:41:08;;;;;;;;;;;23.60;62.10;;;;;;8328357;28;19905;-75
2023/07/14 13:45:20;;;;;;;;;;;23.60;62.10;;;;;;8309848;28;19912;-75
2023/07/14 13:49:21;;;;;;;;;;;23.60;62.10;;;;;;8327137;28;20367;-75
2023/07/14 13:53:22;;;;;;;;;;;23.60;62.10;;;;;;8309020;28;20314;-75
2023/07/14 13:57:23;;;;;;;;;;;23.60;62.10;;;;;;8326559;28;20317;-75
2023/07/14 14:01:24;;;;;;;;;;;23.60;62.10;;;;;;8325904;28;19986;-75
2023/07/14 14:05:31;;;;;;;;;;;23.60;62.10;;;;;;8325343;28;19959;-75
2023/07/14 14:09:32;;;;;;;;;;;23.60;62.10;;;;;;8326661;28;19966;-76
2023/07/14 14:13:32;;;;;;;;;;;23.70;62.10;;;;;;8328220;28;20410;-76
2023/07/14 14:17:36;;;;;;;;;;;23.60;62.00;;;;;;8333334;28;19979;-74
2023/07/14 14:21:36;;;;;;;;;;;23.60;62.00;;;;;;8332569;28;20355;-75
2023/07/14 14:25:37;;;;;;;;;;;23.60;62.00;;;;;;8322592;28;20384;-75
2023/07/14 14:29:38;;;;;;;;;;;23.60;62.00;;;;;;8281959;28;20004;-75
2023/07/14 14:33:38;;;;;;;;;;;23.60;62.00;;;;;;8299673;28;19912;-75
2023/07/14 14:37:39;;;;;;;;;;;23.70;62.10;;;;;;8281908;28;20047;-75
2023/07/14 14:41:40;;;;;;;;;;;23.60;62.00;;;;;;8281642;28;19916;-75
2023/07/14 14:45:41;;;;;;;;;;;23.60;62.00;;;;;;8299250;28;19912;-75
2023/07/14 14:49:41;;;;;;;;;;;23.60;62.00;;;;;;8298989;28;19910;-75
2023/07/14 14:53:42;;;;;;;;;;;23.60;61.90;;;;;;8298974;28;19910;-76
2023/07/14 14:57:44;;;;;;;;;;;23.70;62.00;;;;;;8325914;28;20319;-75
2023/07/14 15:01:46;;;;;;;;;;;23.70;62.00;;;;;;8313712;28;19913;-75
2023/07/14 15:05:46;;;;;;;;;;;23.70;62.00;;;;;;8331567;28;19905;-75
2023/07/14 15:09:47;;;;;;;;;;;23.60;62.00;;;;;;8331120;28;19905;-75
2023/07/14 15:13:47;;;;;;;;;;;23.60;62.00;;;;;;8330973;28;19921;-75
2023/07/14 15:17:48;;;;;;;;;;;23.60;62.00;;;;;;8330998;28;19963;-75
2023/07/14 15:21:48;;;;;;;;;;;23.60;62.00;;;;;;8313011;28;19913;-75
2023/07/14 15:25:53;;;;;;;;;;;23.60;62.00;;;;;;8329821;28;19909;-75
2023/07/14 15:30:16;;;;;;;;;;;23.60;62.00;;;;;;8330585;28;20446;-75
2023/07/14 15:34:18;;;;;;;;;;;23.60;62.00;;;;;;8330689;28;20003;-75
2023/07/14 15:38:19;;;;;;;;;;;23.60;62.00;;;;;;8312073;28;19944;-75
2023/07/14 15:42:19;;;;;;;;;;;23.60;61.90;;;;;;8328637;28;19909;-75
2023/07/14 15:46:22;;;;;;;;;;;23.60;62.00;;;;;;8312248;28;19909;-76
2023/07/14 15:50:25;;;;;;;;;;;23.70;62.00;;;;;;8329606;28;19959;-76
2023/07/14 15:54:31;;;;;;;;;;;23.70;62.00;;;;;;8329658;28;19937;-75
2023/07/14 15:58:32;;;;;;;;;;;23.60;61.90;;;;;;8311775;28;19909;-75
2023/07/14 16:02:32;;;;;;;;;;;23.60;61.90;;;;;;8329206;28;19951;-76
2023/07/14 16:06:35;;;;;;;;;;;23.60;61.90;;;;;;8311994;28;19912;-76
2023/07/14 16:10:37;;;;;;;;;;;23.70;62.00;;;;;;8328993;28;19967;-75
2023/07/14 16:14:38;;;;;;;;;;;23.70;62.00;;;;;;8328829;28;19971;-76
2023/07/14 16:18:38;;;;;;;;;;;23.60;61.90;;;;;;8329256;28;19909;-75
2023/07/14 16:22:40;;;;;;;;;;;23.60;62.00;;;;;;8294775;28;19920;-75
2023/07/14 16:26:40;;;;;;;;;;;23.60;62.00;;;;;;8310917;28;19905;-76
2023/07/14 16:30:42;;;;;;;;;;;23.60;62.00;;;;;;8328486;28;19917;-76
2023/07/14 16:34:43;;;;;;;;;;;23.60;62.00;;;;;;8328222;28;20282;-76
2023/07/14 16:38:43;;;;;;;;;;;23.60;62.00;;;;;;8309949;28;19909;-76
2023/07/14 16:42:45;;;;;;;;;;;23.60;62.00;;;;;;8328257;28;19995;-75
2023/07/14 16:46:50;;;;;;;;;;;23.70;62.10;;;;;;8327929;28;19958;-76
2023/07/14 16:50:51;;;;;;;;;;;23.70;62.00;;;;;;8310456;28;19909;-76
2023/07/14 16:54:51;;;;;;;;;;;23.60;61.90;;;;;;8306204;28;19920;-76
2023/07/14 16:58:52;;;;;;;;;;;23.60;61.90;;;;;;8295041;28;19947;-76
2023/07/14 17:02:57;;;;;;;;;;;23.70;62.00;;;;;;8261145;28;19909;-75
2023/07/14 17:06:57;;;;;;;;;;;23.70;62.00;;;;;;8293631;28;19910;-76
2023/07/14 17:11:02;;;;;;;;;;;23.60;61.90;;;;;;8294853;28;20051;-75
2023/07/14 17:15:03;;;;;;;;;;;23.60;61.90;;;;;;8294649;28;20403;-76
2023/07/14 17:19:13;;;;;;;;;;;23.70;62.00;;;;;;8294716;28;20343;-76
2023/07/14 17:23:18;;;;;;;;;;;23.70;62.00;;;;;;8293675;28;19906;-76
2023/07/14 17:27:19;;;;;;;;;;;23.70;62.00;;;;;;8292984;28;19905;-75
2023/07/14 17:31:19;;;;;;;;;;;23.70;62.00;;;;;;8293364;28;19920;-76
2023/07/14 17:35:22;;;;;;;;;;;23.70;62.00;;;;;;8294250;28;19913;-75
2023/07/14 17:39:23;;;;;;;;;;;23.70;62.00;;;;;;8294908;28;19912;-76
2023/07/14 17:43:24;;;;;;;;;;;23.60;62.00;;;;;;8276887;28;19941;-76
2023/07/14 17:47:24;;;;;;;;;;;23.60;62.00;;;;;;8292985;28;20417;-75
2023/07/14 17:51:25;;;;;;;;;;;23.60;62.00;;;;;;8299401;28;20389;-75
2023/07/14 17:55:26;;;;;;;;;;;23.60;62.00;;;;;;8283220;28;20426;-76
2023/07/14 17:59:27;;;;;;;;;;;23.60;62.00;;;;;;8282653;28;19905;-76
2023/07/14 18:03:30;;;;;;;;;;;23.70;62.00;;;;;;8300464;28;19906;-76
2023/07/14 18:07:32;;;;;;;;;;;23.60;61.90;;;;;;8300309;28;19905;-75
2023/07/14 18:11:32;;;;;;;;;;;23.70;62.00;;;;;;8282471;28;19914;-75
2023/07/14 18:15:33;;;;;;;;;;;23.70;62.00;;;;;;8315678;28;20202;-76
2023/07/14 18:19:33;;;;;;;;;;;23.70;62.00;;;;;;8332504;28;19909;-76
2023/07/14 18:23:34;;;;;;;;;;;23.60;61.90;;;;;;8314767;28;19916;-76
2023/07/14 18:27:35;;;;;;;;;;;23.70;62.00;;;;;;8297951;28;19905;-76
2023/07/14 18:31:36;;;;;;;;;;;23.60;61.90;;;;;;8299518;28;19967;-76
2023/07/14 18:35:37;;;;;;;;;;;23.70;62.00;;;;;;8299372;28;20294;-76
2023/07/14 18:39:39;;;;;;;;;;;23.60;62.00;;;;;;8299371;28;19909;-77
2023/07/14 18:43:40;;;;;;;;;;;23.60;62.70;;;;;;8299244;28;19909;-76
2023/07/14 18:47:41;;;;;;;;;;;23.60;61.90;;;;;;8298856;28;19959;-76
2023/07/14 18:51:43;;;;;;;;;;;23.60;61.90;;;;;;8298901;28;20367;-76
2023/07/14 18:55:43;;;;;;;;;;;23.60;62.00;;;;;;8309908;28;20290;-76
2023/07/14 18:59:44;;;;;;;;;;;23.60;62.00;;;;;;8312626;28;20159;-75
2023/07/14 19:03:45;;;;;;;;;;;23.60;62.00;;;;;;8330900;28;19963;-76
2023/07/14 19:07:46;;;;;;;;;;;23.60;62.00;;;;;;8313509;28;20091;-76
2023/07/14 19:11:54;;;;;;;;;;;23.60;62.00;;;;;;8330989;28;20000;-76
2023/07/14 19:15:54;;;;;;;;;;;23.60;62.00;;;;;;8329556;28;19917;-76
2023/07/14 19:19:56;;;;;;;;;;;23.60;62.00;;;;;;8312992;28;20003;-76
2023/07/14 19:23:56;;;;;;;;;;;23.60;62.00;;;;;;8330756;28;20472;-76
2023/07/14 19:27:57;;;;;;;;;;;23.60;62.00;;;;;;8330350;28;19976;-76
2023/07/14 19:31:58;;;;;;;;;;;23.70;62.10;;;;;;8331260;28;19920;-76
2023/07/14 19:35:59;;;;;;;;;;;23.60;62.00;;;;;;8330239;28;19912;-76
2023/07/14 19:40:00;;;;;;;;;;;23.60;62.00;;;;;;8330299;28;19990;-75
2023/07/14 19:44:01;;;;;;;;;;;23.60;62.00;;;;;;8330614;28;19912;-76
2023/07/14 19:48:01;;;;;;;;;;;23.60;62.00;;;;;;8328997;28;20261;-75
2023/07/14 19:52:02;;;;;;;;;;;23.60;62.00;;;;;;8330509;28;19972;-75
2023/07/14 19:56:03;;;;;;;;;;;23.60;62.00;;;;;;8331537;28;19984;-75
2023/07/14 20:00:08;;;;;;;;;;;23.60;62.00;;;;;;8330859;28;19909;-76
2023/07/14 20:04:09;;;;;;;;;;;23.60;62.00;;;;;;8331249;28;19945;-75
2023/07/14 20:08:10;;;;;;;;;;;23.70;62.00;;;;;;8330655;28;19912;-76
2023/07/14 20:12:15;;;;;;;;;;;23.70;62.00;;;;;;8330190;28;20450;-75
2023/07/14 20:16:17;;;;;;;;;;;23.60;61.90;;;;;;8330844;28;19968;-75
2023/07/14 20:20:19;;;;;;;;;;;23.70;62.00;;;;;;8330359;28;19905;-75
2023/07/14 20:24:21;;;;;;;;;;;23.60;61.90;;;;;;8313175;28;19916;-75
2023/07/14 20:28:22;;;;;;;;;;;23.60;62.00;;;;;;8330900;28;19911;-75
2023/07/14 20:32:26;;;;;;;;;;;23.70;62.10;;;;;;8312431;28;20008;-75
2023/07/14 20:36:27;;;;;;;;;;;23.60;62.10;;;;;;8333355;28;19912;-75
2023/07/14 20:40:27;;;;;;;;;;;23.60;62.10;;;;;;8333121;28;19905;-75
2023/07/14 20:44:28;;;;;;;;;;;23.60;62.10;;;;;;8316399;28;19909;-75
2023/07/14 20:48:29;;;;;;;;;;;23.70;62.10;;;;;;8333975;28;19963;-75
2023/07/14 20:52:29;;;;;;;;;;;23.60;62.10;;;;;;8310888;28;19913;-75
2023/07/14 20:56:30;;;;;;;;;;;23.60;62.00;;;;;;8328388;28;19909;-75
2023/07/14 21:00:31;;;;;;;;;;;23.60;62.00;;;;;;8310478;28;20417;-75
2023/07/14 21:04:34;;;;;;;;;;;23.60;62.00;;;;;;8327934;28;19960;-75
2023/07/14 21:08:35;;;;;;;;;;;23.60;62.80;;;;;;8293693;28;19924;-75
2023/07/14 21:12:35;;;;;;;;;;;23.60;62.00;;;;;;8293685;28;19925;-74
2023/07/14 21:16:36;;;;;;;;;;;23.60;62.00;;;;;;8284583;28;19953;-75
2023/07/14 21:20:38;;;;;;;;;;;23.60;62.00;;;;;;8294799;28;19906;-76
2023/07/14 21:24:39;;;;;;;;;;;23.70;62.10;;;;;;8293381;28;19916;-75
2023/07/14 21:28:40;;;;;;;;;;;23.60;62.00;;;;;;8277820;28;19933;-75
2023/07/14 21:32:40;;;;;;;;;;;23.60;62.00;;;;;;8295285;28;19914;-75
2023/07/14 21:36:41;;;;;;;;;;;23.60;62.00;;;;;;8296398;28;20347;-75
2023/07/14 21:40:44;;;;;;;;;;;23.60;62.00;;;;;;8295405;28;19962;-75
2023/07/14 21:44:45;;;;;;;;;;;23.60;62.00;;;;;;8294883;28;19914;-75
2023/07/14 21:48:46;;;;;;;;;;;23.60;62.00;;;;;;8294594;28;20282;-75
2023/07/14 21:52:54;;;;;;;;;;;23.60;62.00;;;;;;8294233;28;20023;-76
2023/07/14 21:56:55;;;;;;;;;;;23.60;62.00;;;;;;8294119;28;20347;-75
2023/07/14 22:00:59;;;;;;;;;;;23.60;62.00;;;;;;8293993;28;20275;-75
2023/07/14 22:05:00;;;;;;;;;;;23.60;62.00;;;;;;8294205;28;19914;-75
2023/07/14 22:09:00;;;;;;;;;;;23.60;62.00;;;;;;8294498;28;19909;-75
2023/07/14 22:13:01;;;;;;;;;;;23.60;62.00;;;;;;8293741;28;19960;-75
2023/07/14 22:17:01;;;;;;;;;;;23.60;62.00;;;;;;8304960;28;19975;-76
2023/07/14 22:21:09;;;;;;;;;;;23.60;62.00;;;;;;8326449;28;20008;-76
2023/07/14 22:25:10;;;;;;;;;;;23.60;62.00;;;;;;8326093;28;19905;-76
2023/07/14 22:29:11;;;;;;;;;;;23.60;62.00;;;;;;8326544;28;19908;-75
2023/07/14 22:33:29;;;;;;;;;;;23.60;62.00;;;;;;8292319;28;19913;-76
2023/07/14 22:37:29;;;;;;;;;;;23.60;62.00;;;;;;8330583;28;19905;-76
2023/07/14 22:41:36;;;;;;;;;;;23.60;62.00;;;;;;8314265;28;19994;-75
2023/07/14 22:45:36;;;;;;;;;;;23.60;62.00;;;;;;8332092;28;20314;-75
2023/07/14 22:49:37;;;;;;;;;;;23.60;62.00;;;;;;8331601;28;19917;-75
2023/07/14 22:53:37;;;;;;;;;;;23.60;62.00;;;;;;8331836;28;20003;-75
2023/07/14 22:57:39;;;;;;;;;;;23.60;62.00;;;;;;8313888;28;19963;-76
2023/07/14 23:01:40;;;;;;;;;;;23.60;62.00;;;;;;8313450;28;20370;-75
2023/07/14 23:05:40;;;;;;;;;;;23.60;62.00;;;;;;8331366;28;19909;-75
2023/07/14 23:09:41;;;;;;;;;;;23.60;62.00;;;;;;8296958;28;19909;-75
2023/07/14 23:13:42;;;;;;;;;;;23.60;62.00;;;;;;8331119;28;20221;-75
2023/07/14 23:17:43;;;;;;;;;;;23.60;62.00;;;;;;8313340;28;19908;-75
2023/07/14 23:21:44;;;;;;;;;;;23.60;62.00;;;;;;8330708;28;19933;-75
2023/07/14 23:25:45;;;;;;;;;;;23.60;62.00;;;;;;8312822;28;20028;-75
2023/07/14 23:29:46;;;;;;;;;;;23.60;62.00;;;;;;8330923;28;20266;-75